PWSweather.com
Personal Weather Stations
Station Observations

SkegnessGB

Lat: 53.147585, Lon: 0.345774

Elevation: 18

Station Type: Fine Offset WH3080

http://www.skegnessweather.info/

High Low Average
Temperature 65.8°F18.8°C 57.2°F14.0°C 60.4°F15.8°C
Dew Point 63.0°F17.2°C 54.3°F12.4°C 58.3°F14.6°C
Winds 15.8 mph 25.4 kmh 2.5 mph 4.0 kmh 9.0 mph S14.5 kmh S
Wind Gusts 18.5 mph29.8 kmh 3.4 mph5.5 kmh 10.0 mph16.1 kmh
Humidity 99% 72% 93%
Pressure 29.71 in1006.1 mb 29.43 in996.6 mb -
Precipitation 0.34 in8.6 mm - -
Hour Temp Dew Point Humidity Winds Wind Gusts Pressure Precip Precip Rate Daily Precip Total
12:00 AM 58.5°F14.7°C 57.0°F13.9°C 95% 10.7 mph SSE17.2 kmh SSE 10.8 mph17.4 kmh 29.71 in1006.1 mb 0.00 in0.0 mm 0.00 in0.0 mm 0.00 in0.0 mm
12:10 AM 58.6°F14.8°C 57.2°F14.0°C 95% 11.9 mph SSE19.2 kmh SSE 12.5 mph20.1 kmh 29.71 in1006.1 mb 0.00 in0.0 mm 0.00 in0.0 mm 0.00 in0.0 mm
12:20 AM 58.8°F14.9°C 57.7°F14.3°C 96% 9.8 mph S15.8 kmh S 12.5 mph20.1 kmh 29.71 in1006.1 mb 0.00 in0.0 mm 0.00 in0.0 mm 0.00 in0.0 mm
12:30 AM 58.8°F14.9°C 57.7°F14.3°C 96% 11.9 mph SSE19.2 kmh SSE 13.3 mph21.4 kmh 29.71 in1006.1 mb 0.00 in0.0 mm 0.00 in0.0 mm 0.00 in0.0 mm
12:40 AM 59.0°F15.0°C 58.2°F14.6°C 97% 9.2 mph SE14.8 kmh SE 11.8 mph19.0 kmh 29.70 in1005.8 mb 0.00 in0.0 mm 0.00 in0.0 mm 0.00 in0.0 mm
12:50 AM 59.0°F15.0°C 58.2°F14.6°C 97% 10.1 mph SSE16.3 kmh SSE 10.8 mph17.4 kmh 29.71 in1006.1 mb 0.00 in0.0 mm 0.00 in0.0 mm 0.00 in0.0 mm
01:00 AM 59.2°F15.1°C 58.3°F14.6°C 97% 10.1 mph SSE16.3 kmh SSE 10.1 mph16.3 kmh 29.70 in1005.8 mb 0.00 in0.0 mm 0.00 in0.0 mm 0.00 in0.0 mm
01:10 AM 59.4°F15.2°C 58.8°F14.9°C 98% 10.9 mph S17.5 kmh S 14.3 mph23.0 kmh 29.70 in1005.8 mb 0.00 in0.0 mm 0.00 in0.0 mm 0.00 in0.0 mm
01:20 AM 59.5°F15.3°C 59.0°F15.0°C 98% 12.8 mph SSE20.6 kmh SSE 14.3 mph23.0 kmh 29.70 in1005.8 mb 0.00 in0.0 mm 0.00 in0.0 mm 0.00 in0.0 mm
01:30 AM 59.7°F15.4°C 58.9°F14.9°C 97% 12.1 mph SSE19.5 kmh SSE 13.3 mph21.4 kmh 29.69 in1005.4 mb 0.00 in0.0 mm 0.00 in0.0 mm 0.00 in0.0 mm
01:40 AM 59.9°F15.5°C 59.0°F15.0°C 97% 14.1 mph SSE22.7 kmh SSE 13.3 mph21.4 kmh 29.69 in1005.4 mb 0.00 in0.0 mm 0.00 in0.0 mm 0.00 in0.0 mm
01:50 AM 59.9°F15.5°C 58.8°F14.9°C 96% 11.6 mph S18.7 kmh S 13.3 mph21.4 kmh 29.68 in1005.1 mb 0.00 in0.0 mm 0.00 in0.0 mm 0.00 in0.0 mm
02:00 AM 59.9°F15.5°C 58.8°F14.9°C 96% 12.8 mph SE20.6 kmh SE 10.8 mph17.4 kmh 29.68 in1005.1 mb 0.00 in0.0 mm 0.00 in0.0 mm 0.00 in0.0 mm
02:10 AM 59.9°F15.5°C 58.5°F14.7°C 95% 13.1 mph SE21.1 kmh SE 10.1 mph16.3 kmh 29.68 in1005.1 mb 0.00 in0.0 mm 0.00 in0.0 mm 0.00 in0.0 mm
02:20 AM 59.9°F15.5°C 58.5°F14.7°C 95% 10.7 mph SE17.2 kmh SE 9.1 mph14.6 kmh 29.67 in1004.7 mb 0.00 in0.0 mm 0.00 in0.0 mm 0.00 in0.0 mm
02:30 AM 59.9°F15.5°C 58.5°F14.7°C 95% 9.0 mph S14.5 kmh S 8.4 mph13.5 kmh 29.66 in1004.4 mb 0.00 in0.0 mm 0.00 in0.0 mm 0.00 in0.0 mm
02:40 AM 60.1°F15.6°C 58.6°F14.8°C 95% 9.2 mph S14.8 kmh S 9.1 mph14.6 kmh 29.67 in1004.7 mb 0.00 in0.0 mm 0.00 in0.0 mm 0.00 in0.0 mm
02:50 AM 60.1°F15.6°C 58.6°F14.8°C 95% 9.0 mph SE14.5 kmh SE 9.1 mph14.6 kmh 29.66 in1004.4 mb 0.00 in0.0 mm 0.00 in0.0 mm 0.00 in0.0 mm
03:00 AM 60.1°F15.6°C 58.6°F14.8°C 95% 7.2 mph SE11.6 kmh SE 7.6 mph12.2 kmh 29.65 in1004.1 mb 0.00 in0.0 mm 0.00 in0.0 mm 0.00 in0.0 mm
03:10 AM 59.9°F15.5°C 58.5°F14.7°C 95% 11.0 mph SSE17.7 kmh SSE 10.8 mph17.4 kmh 29.65 in1004.1 mb 0.00 in0.0 mm 0.00 in0.0 mm 0.00 in0.0 mm
03:20 AM 60.1°F15.6°C 58.6°F14.8°C 95% 12.2 mph SSE19.6 kmh SSE 11.8 mph19.0 kmh 29.65 in1004.1 mb 0.00 in0.0 mm 0.00 in0.0 mm 0.00 in0.0 mm
03:30 AM 60.1°F15.6°C 58.6°F14.8°C 95% 13.1 mph SSW21.1 kmh SSW 11.8 mph19.0 kmh 29.65 in1004.1 mb 0.00 in0.0 mm 0.00 in0.0 mm 0.00 in0.0 mm
03:40 AM 60.1°F15.6°C 58.9°F14.9°C 96% 11.8 mph S19.0 kmh S 11.8 mph19.0 kmh 29.65 in1004.1 mb 0.00 in0.0 mm 0.00 in0.0 mm 0.00 in0.0 mm
03:50 AM 60.1°F15.6°C 58.9°F14.9°C 96% 12.4 mph SSE20.0 kmh SSE 10.8 mph17.4 kmh 29.65 in1004.1 mb 0.00 in0.0 mm 0.00 in0.0 mm 0.00 in0.0 mm
04:00 AM 60.3°F15.7°C 59.1°F15.1°C 96% 13.6 mph SSE21.9 kmh SSE 13.3 mph21.4 kmh 29.64 in1003.7 mb 0.00 in0.0 mm 0.00 in0.0 mm 0.00 in0.0 mm
04:10 AM 60.1°F15.6°C 58.9°F14.9°C 96% 13.5 mph S21.7 kmh S 15.0 mph24.1 kmh 29.63 in1003.4 mb 0.00 in0.0 mm 0.00 in0.0 mm 0.00 in0.0 mm
04:20 AM 60.1°F15.6°C 59.2°F15.1°C 97% 10.7 mph SE17.2 kmh SE 15.0 mph24.1 kmh 29.63 in1003.4 mb 0.00 in0.0 mm 0.00 in0.0 mm 0.00 in0.0 mm
04:30 AM 59.9°F15.5°C 59.0°F15.0°C 97% 9.8 mph SE15.8 kmh SE 14.3 mph23.0 kmh 29.62 in1003.0 mb 0.00 in0.0 mm 0.00 in0.0 mm 0.00 in0.0 mm
04:40 AM 59.9°F15.5°C 59.0°F15.0°C 97% 9.7 mph SSE15.6 kmh SSE 12.5 mph20.1 kmh 29.62 in1003.0 mb 0.00 in0.0 mm 0.00 in0.0 mm 0.00 in0.0 mm
04:50 AM 59.9°F15.5°C 59.3°F15.2°C 98% 8.5 mph SSE13.7 kmh SSE 9.1 mph14.6 kmh 29.61 in1002.7 mb 0.00 in0.0 mm 0.00 in0.0 mm 0.00 in0.0 mm
05:00 AM 59.9°F15.5°C 59.3°F15.2°C 98% 7.8 mph SSE12.6 kmh SSE 10.1 mph16.3 kmh 29.62 in1003.0 mb 0.00 in0.0 mm 0.00 in0.0 mm 0.00 in0.0 mm
05:10 AM 59.9°F15.5°C 59.3°F15.2°C 98% 6.4 mph SSE10.3 kmh SSE 8.4 mph13.5 kmh 29.62 in1003.0 mb 0.00 in0.0 mm 0.00 in0.0 mm 0.00 in0.0 mm
05:20 AM 60.1°F15.6°C 59.8°F15.4°C 99% 7.6 mph SSW12.2 kmh SSW 9.1 mph14.6 kmh 29.61 in1002.7 mb 0.00 in0.0 mm 0.00 in0.0 mm 0.00 in0.0 mm
05:30 AM 60.1°F15.6°C 59.8°F15.4°C 99% 6.7 mph SSE10.8 kmh SSE 7.6 mph12.2 kmh 29.60 in1002.4 mb 0.00 in0.0 mm 0.00 in0.0 mm 0.00 in0.0 mm
05:40 AM 60.1°F15.6°C 59.8°F15.4°C 99% 6.6 mph S10.6 kmh S 7.6 mph12.2 kmh 29.60 in1002.4 mb 0.00 in0.0 mm 0.00 in0.0 mm 0.00 in0.0 mm
05:50 AM 60.3°F15.7°C 60.0°F15.6°C 99% 9.2 mph S14.8 kmh S 9.1 mph14.6 kmh 29.60 in1002.4 mb 0.00 in0.0 mm 0.00 in0.0 mm 0.00 in0.0 mm
06:00 AM 60.3°F15.7°C 60.0°F15.6°C 99% 8.4 mph SSE13.5 kmh SSE 8.4 mph13.5 kmh 29.60 in1002.4 mb 0.00 in0.0 mm 0.00 in0.0 mm 0.00 in0.0 mm
06:10 AM 60.3°F15.7°C 60.0°F15.6°C 99% 7.6 mph SW12.2 kmh SW 9.1 mph14.6 kmh 29.60 in1002.4 mb 0.00 in0.0 mm 0.00 in0.0 mm 0.00 in0.0 mm
06:20 AM 60.4°F15.8°C 60.2°F15.7°C 99% 7.3 mph SSE11.7 kmh SSE 9.1 mph14.6 kmh 29.59 in1002.0 mb 0.00 in0.0 mm 0.00 in0.0 mm 0.00 in0.0 mm
06:30 AM 60.4°F15.8°C 60.2°F15.7°C 99% 7.7 mph S12.4 kmh S 7.6 mph12.2 kmh 29.59 in1002.0 mb 0.00 in0.0 mm 0.00 in0.0 mm 0.00 in0.0 mm
06:40 AM 60.4°F15.8°C 60.2°F15.7°C 99% 7.7 mph SE12.4 kmh SE 8.4 mph13.5 kmh 29.59 in1002.0 mb 0.00 in0.0 mm 0.00 in0.0 mm 0.00 in0.0 mm
06:50 AM 60.4°F15.8°C 60.2°F15.7°C 99% 7.9 mph SSE12.7 kmh SSE 10.1 mph16.3 kmh 29.58 in1001.7 mb 0.00 in0.0 mm 0.00 in0.0 mm 0.00 in0.0 mm
07:00 AM 60.4°F15.8°C 60.2°F15.7°C 99% 7.3 mph SSE11.7 kmh SSE 8.4 mph13.5 kmh 29.58 in1001.7 mb 0.01 in0.3 mm 0.01 in0.3 mm 0.01 in0.3 mm
07:10 AM 60.3°F15.7°C 59.7°F15.4°C 98% 10.4 mph SSE16.7 kmh SSE 14.3 mph23.0 kmh 29.58 in1001.7 mb 0.04 in1.0 mm 0.18 in4.6 mm 0.04 in1.0 mm
07:20 AM 60.1°F15.6°C 59.5°F15.3°C 98% 6.2 mph S10.0 kmh S 8.4 mph13.5 kmh 29.57 in1001.4 mb 0.07 in1.8 mm 0.18 in4.6 mm 0.07 in1.8 mm
07:30 AM 60.1°F15.6°C 59.5°F15.3°C 98% 6.6 mph SSE10.6 kmh SSE 8.4 mph13.5 kmh 29.57 in1001.4 mb 0.07 in1.8 mm 0.00 in0.0 mm 0.07 in1.8 mm
07:40 AM 60.3°F15.7°C 60.0°F15.6°C 99% 5.8 mph SE9.3 kmh SE 6.6 mph10.6 kmh 29.56 in1001.0 mb 0.07 in1.8 mm 0.00 in0.0 mm 0.07 in1.8 mm
07:50 AM 60.3°F15.7°C 60.0°F15.6°C 99% 6.2 mph SE10.0 kmh SE 8.4 mph13.5 kmh 29.56 in1001.0 mb 0.07 in1.8 mm 0.00 in0.0 mm 0.07 in1.8 mm
08:00 AM 60.6°F15.9°C 60.3°F15.7°C 99% 5.8 mph SSE9.3 kmh SSE 6.6 mph10.6 kmh 29.55 in1000.7 mb 0.06 in1.5 mm 0.00 in0.0 mm 0.07 in1.8 mm
08:10 AM 60.8°F16.0°C 60.5°F15.8°C 99% 6.0 mph SE9.7 kmh SE 4.9 mph7.9 kmh 29.55 in1000.7 mb 0.04 in1.0 mm 0.00 in0.0 mm 0.07 in1.8 mm
08:20 AM 61.0°F16.1°C 60.7°F15.9°C 99% 4.8 mph ENE7.7 kmh ENE 8.4 mph13.5 kmh 29.55 in1000.7 mb 0.00 in0.0 mm 0.00 in0.0 mm 0.07 in1.8 mm
08:30 AM 60.8°F16.0°C 60.5°F15.8°C 99% 6.1 mph SSE9.8 kmh SSE 8.4 mph13.5 kmh 29.55 in1000.7 mb 0.00 in0.0 mm 0.00 in0.0 mm 0.07 in1.8 mm
08:40 AM 60.6°F15.9°C 60.3°F15.7°C 99% 4.7 mph NE7.6 kmh NE 7.6 mph12.2 kmh 29.53 in1000.0 mb 0.00 in0.0 mm 0.00 in0.0 mm 0.07 in1.8 mm
08:50 AM 60.8°F16.0°C 60.5°F15.8°C 99% 6.4 mph S10.3 kmh S 8.4 mph13.5 kmh 29.53 in1000.0 mb 0.00 in0.0 mm 0.00 in0.0 mm 0.07 in1.8 mm
09:00 AM 60.8°F16.0°C 60.5°F15.8°C 99% 5.8 mph S9.3 kmh S 7.6 mph12.2 kmh 29.53 in1000.0 mb 0.00 in0.0 mm 0.00 in0.0 mm 0.07 in1.8 mm
09:10 AM 60.8°F16.0°C 60.5°F15.8°C 99% 7.9 mph SE12.7 kmh SE 10.8 mph17.4 kmh 29.53 in1000.0 mb 0.00 in0.0 mm 0.00 in0.0 mm 0.07 in1.8 mm
09:20 AM 60.8°F16.0°C 60.5°F15.8°C 99% 8.2 mph SE13.2 kmh SE 12.5 mph20.1 kmh 29.52 in999.7 mb 0.00 in0.0 mm 0.00 in0.0 mm 0.07 in1.8 mm
09:30 AM 60.8°F16.0°C 60.5°F15.8°C 99% 6.0 mph SE9.7 kmh SE 12.5 mph20.1 kmh 29.52 in999.7 mb 0.01 in0.3 mm 0.06 in1.5 mm 0.08 in2.0 mm
09:40 AM 60.6°F15.9°C 60.3°F15.7°C 99% 6.0 mph SE9.7 kmh SE 10.1 mph16.3 kmh 29.52 in999.7 mb 0.02 in0.5 mm 0.06 in1.5 mm 0.09 in2.3 mm
09:50 AM 60.4°F15.8°C 59.9°F15.5°C 98% 8.2 mph S13.2 kmh S 14.3 mph23.0 kmh 29.51 in999.3 mb 0.09 in2.3 mm 0.42 in10.7 mm 0.17 in4.3 mm
10:00 AM 60.3°F15.7°C 59.7°F15.4°C 98% 7.1 mph SSE11.4 kmh SSE 10.1 mph16.3 kmh 29.50 in999.0 mb 0.12 in3.0 mm 0.04 in1.0 mm 0.19 in4.8 mm
10:10 AM 60.3°F15.7°C 59.7°F15.4°C 98% 8.3 mph S13.4 kmh S 10.8 mph17.4 kmh 29.49 in998.6 mb 0.12 in3.0 mm 0.00 in0.0 mm 0.19 in4.8 mm
10:20 AM 60.3°F15.7°C 59.7°F15.4°C 98% 5.4 mph S8.7 kmh S 8.4 mph13.5 kmh 29.48 in998.3 mb 0.13 in3.3 mm 0.06 in1.5 mm 0.20 in5.1 mm
10:30 AM 60.3°F15.7°C 59.7°F15.4°C 98% 5.4 mph ESE8.7 kmh ESE 6.6 mph10.6 kmh 29.49 in998.6 mb 0.12 in3.0 mm 0.00 in0.0 mm 0.20 in5.1 mm
10:40 AM 60.3°F15.7°C 59.7°F15.4°C 98% 8.2 mph SSE13.2 kmh SSE 10.1 mph16.3 kmh 29.49 in998.6 mb 0.11 in2.8 mm 0.00 in0.0 mm 0.21 in5.3 mm
10:50 AM 60.3°F15.7°C 59.7°F15.4°C 98% 9.4 mph SE15.1 kmh SE 12.5 mph20.1 kmh 29.49 in998.6 mb 0.06 in1.5 mm 0.00 in0.0 mm 0.22 in5.6 mm
11:00 AM 60.4°F15.8°C 60.2°F15.7°C 99% 9.8 mph S15.8 kmh S 16.0 mph25.7 kmh 29.49 in998.6 mb 0.04 in1.0 mm 0.00 in0.0 mm 0.22 in5.6 mm
11:10 AM 60.6°F15.9°C 60.3°F15.7°C 99% 10.8 mph SSE17.4 kmh SSE 14.3 mph23.0 kmh 29.47 in998.0 mb 0.04 in1.0 mm 0.00 in0.0 mm 0.22 in5.6 mm
11:20 AM 60.8°F16.0°C 60.5°F15.8°C 99% 8.3 mph ESE13.4 kmh ESE 14.3 mph23.0 kmh 29.47 in998.0 mb 0.02 in0.5 mm 0.00 in0.0 mm 0.22 in5.6 mm
11:30 AM 61.0°F16.1°C 60.7°F15.9°C 99% 10.1 mph S16.3 kmh S 16.0 mph25.7 kmh 29.46 in997.6 mb 0.02 in0.5 mm 0.00 in0.0 mm 0.22 in5.6 mm
11:40 AM 60.8°F16.0°C 60.5°F15.8°C 99% 10.2 mph SSW16.4 kmh SSW 10.1 mph16.3 kmh 29.46 in997.6 mb 0.01 in0.3 mm 0.00 in0.0 mm 0.22 in5.6 mm
11:50 AM 60.8°F16.0°C 60.2°F15.7°C 98% 11.7 mph SW18.8 kmh SW 14.3 mph23.0 kmh 29.46 in997.6 mb 0.02 in0.5 mm 0.06 in1.5 mm 0.25 in6.4 mm
12:00 PM 60.6°F15.9°C 60.1°F15.6°C 98% 10.5 mph SSE16.9 kmh SSE 11.8 mph19.0 kmh 29.46 in997.6 mb 0.04 in1.0 mm 0.02 in0.5 mm 0.26 in6.6 mm
12:10 PM 60.8°F16.0°C 60.2°F15.7°C 98% 13.0 mph SSW20.9 kmh SSW 10.8 mph17.4 kmh 29.45 in997.3 mb 0.05 in1.3 mm 0.06 in1.5 mm 0.27 in6.9 mm
12:20 PM 61.7°F16.5°C 61.4°F16.3°C 99% 10.5 mph SSE16.9 kmh SSE 10.8 mph17.4 kmh 29.44 in997.0 mb 0.05 in1.3 mm 0.00 in0.0 mm 0.27 in6.9 mm
12:30 PM 62.4°F16.9°C 62.1°F16.7°C 99% 10.1 mph S16.3 kmh S 9.1 mph14.6 kmh 29.44 in997.0 mb 0.05 in1.3 mm 0.00 in0.0 mm 0.27 in6.9 mm
12:40 PM 63.9°F17.7°C 63.0°F17.2°C 97% 13.4 mph SSE21.6 kmh SSE 12.5 mph20.1 kmh 29.43 in996.6 mb 0.05 in1.3 mm 0.00 in0.0 mm 0.27 in6.9 mm
12:50 PM 64.0°F17.8°C 62.0°F16.7°C 93% 12.4 mph SSE20.0 kmh SSE 12.5 mph20.1 kmh 29.44 in997.0 mb 0.02 in0.5 mm 0.00 in0.0 mm 0.27 in6.9 mm
01:00 PM 63.3°F17.4°C 60.0°F15.6°C 89% 15.0 mph SE24.1 kmh SE 15.0 mph24.1 kmh 29.45 in997.3 mb 0.01 in0.3 mm 0.00 in0.0 mm 0.27 in6.9 mm
01:10 PM 64.8°F18.2°C 61.4°F16.3°C 89% 11.5 mph S18.5 kmh S 13.3 mph21.4 kmh 29.44 in997.0 mb 0.00 in0.0 mm 0.00 in0.0 mm 0.27 in6.9 mm
01:20 PM 64.8°F18.2°C 59.8°F15.4°C 84% 12.7 mph S20.4 kmh S 13.3 mph21.4 kmh 29.44 in997.0 mb 0.00 in0.0 mm 0.00 in0.0 mm 0.27 in6.9 mm
01:30 PM 64.4°F18.0°C 59.1°F15.1°C 83% 12.8 mph S20.6 kmh S 11.8 mph19.0 kmh 29.43 in996.6 mb 0.00 in0.0 mm 0.00 in0.0 mm 0.27 in6.9 mm
01:40 PM 64.9°F18.3°C 59.3°F15.2°C 82% 13.0 mph S20.9 kmh S 15.0 mph24.1 kmh 29.44 in997.0 mb 0.00 in0.0 mm 0.00 in0.0 mm 0.27 in6.9 mm
01:50 PM 64.8°F18.2°C 58.4°F14.7°C 80% 15.8 mph S25.4 kmh S 15.0 mph24.1 kmh 29.44 in997.0 mb 0.00 in0.0 mm 0.00 in0.0 mm 0.27 in6.9 mm
02:00 PM 64.8°F18.2°C 57.7°F14.3°C 78% 14.8 mph SW23.8 kmh SW 13.3 mph21.4 kmh 29.43 in996.6 mb 0.00 in0.0 mm 0.00 in0.0 mm 0.27 in6.9 mm
02:10 PM 64.9°F18.3°C 57.9°F14.4°C 78% 11.9 mph S19.2 kmh S 12.5 mph20.1 kmh 29.43 in996.6 mb 0.00 in0.0 mm 0.00 in0.0 mm 0.27 in6.9 mm
02:20 PM 65.5°F18.6°C 57.0°F13.9°C 74% 11.6 mph S18.7 kmh S 18.5 mph29.8 kmh 29.44 in997.0 mb 0.00 in0.0 mm 0.00 in0.0 mm 0.27 in6.9 mm
02:30 PM 65.8°F18.8°C 56.6°F13.7°C 72% 8.7 mph SSW14.0 kmh SSW 10.8 mph17.4 kmh 29.44 in997.0 mb 0.00 in0.0 mm 0.00 in0.0 mm 0.27 in6.9 mm
02:40 PM 65.5°F18.6°C 56.2°F13.4°C 72% 13.0 mph S20.9 kmh S 13.3 mph21.4 kmh 29.44 in997.0 mb 0.00 in0.0 mm 0.00 in0.0 mm 0.27 in6.9 mm
02:50 PM 64.6°F18.1°C 55.7°F13.2°C 73% 12.7 mph SSE20.4 kmh SSE 13.3 mph21.4 kmh 29.44 in997.0 mb 0.00 in0.0 mm 0.00 in0.0 mm 0.27 in6.9 mm
03:00 PM 62.8°F17.1°C 56.2°F13.4°C 79% 11.4 mph S18.3 kmh S 10.8 mph17.4 kmh 29.44 in997.0 mb 0.01 in0.3 mm 0.01 in0.3 mm 0.28 in7.1 mm
03:10 PM 62.6°F17.0°C 57.0°F13.9°C 82% 8.5 mph SE13.7 kmh SE 8.4 mph13.5 kmh 29.44 in997.0 mb 0.01 in0.3 mm 0.00 in0.0 mm 0.28 in7.1 mm
03:20 PM 61.7°F16.5°C 57.1°F13.9°C 85% 8.3 mph S13.4 kmh S 10.8 mph17.4 kmh 29.44 in997.0 mb 0.04 in1.0 mm 0.18 in4.6 mm 0.31 in7.9 mm
03:30 PM 61.9°F16.6°C 58.0°F14.4°C 87% 6.7 mph SW10.8 kmh SW 8.4 mph13.5 kmh 29.44 in997.0 mb 0.04 in1.0 mm 0.00 in0.0 mm 0.31 in7.9 mm
03:40 PM 63.0°F17.2°C 58.7°F14.8°C 86% 9.6 mph S15.4 kmh S 13.3 mph21.4 kmh 29.44 in997.0 mb 0.04 in1.0 mm 0.00 in0.0 mm 0.31 in7.9 mm
03:50 PM 63.5°F17.5°C 58.2°F14.6°C 83% 11.2 mph SSW18.0 kmh SSW 11.8 mph19.0 kmh 29.45 in997.3 mb 0.04 in1.0 mm 0.00 in0.0 mm 0.31 in7.9 mm
04:00 PM 62.8°F17.1°C 56.9°F13.8°C 81% 10.4 mph WSW16.7 kmh WSW 10.8 mph17.4 kmh 29.45 in997.3 mb 0.02 in0.5 mm 0.00 in0.0 mm 0.31 in7.9 mm
04:10 PM 62.4°F16.9°C 57.5°F14.2°C 84% 10.1 mph SE16.3 kmh SE 9.1 mph14.6 kmh 29.45 in997.3 mb 0.02 in0.5 mm 0.00 in0.0 mm 0.31 in7.9 mm
04:20 PM 62.1°F16.7°C 57.5°F14.2°C 85% 9.7 mph SSE15.6 kmh SSE 10.1 mph16.3 kmh 29.45 in997.3 mb 0.00 in0.0 mm 0.00 in0.0 mm 0.31 in7.9 mm
04:30 PM 61.5°F16.4°C 57.6°F14.2°C 87% 9.9 mph S15.9 kmh S 12.5 mph20.1 kmh 29.46 in997.6 mb 0.01 in0.3 mm 0.06 in1.5 mm 0.32 in8.1 mm
04:40 PM 61.0°F16.1°C 57.4°F14.1°C 88% 8.9 mph S14.3 kmh S 12.5 mph20.1 kmh 29.46 in997.6 mb 0.01 in0.3 mm 0.00 in0.0 mm 0.32 in8.1 mm
04:50 PM 60.6°F15.9°C 56.7°F13.7°C 87% 8.1 mph SW13.0 kmh SW 12.5 mph20.1 kmh 29.47 in998.0 mb 0.01 in0.3 mm 0.00 in0.0 mm 0.32 in8.1 mm
05:00 PM 60.3°F15.7°C 56.1°F13.4°C 86% 6.5 mph WSW10.5 kmh WSW 9.1 mph14.6 kmh 29.47 in998.0 mb 0.01 in0.3 mm 0.00 in0.0 mm 0.32 in8.1 mm
05:10 PM 59.9°F15.5°C 56.0°F13.3°C 87% 6.7 mph SW10.8 kmh SW 9.1 mph14.6 kmh 29.48 in998.3 mb 0.01 in0.3 mm 0.00 in0.0 mm 0.32 in8.1 mm
05:20 PM 59.5°F15.3°C 56.0°F13.3°C 88% 4.2 mph SW6.8 kmh SW 7.6 mph12.2 kmh 29.48 in998.3 mb 0.01 in0.3 mm 0.00 in0.0 mm 0.32 in8.1 mm
05:30 PM 59.4°F15.2°C 56.1°F13.4°C 89% 4.2 mph S6.8 kmh S 5.9 mph9.5 kmh 29.48 in998.3 mb 0.00 in0.0 mm 0.00 in0.0 mm 0.32 in8.1 mm
05:40 PM 59.2°F15.1°C 56.2°F13.4°C 90% 4.3 mph S6.9 kmh S 6.6 mph10.6 kmh 29.49 in998.6 mb 0.00 in0.0 mm 0.00 in0.0 mm 0.32 in8.1 mm
05:50 PM 59.2°F15.1°C 56.2°F13.4°C 90% 3.5 mph SSE5.6 kmh SSE 4.9 mph7.9 kmh 29.48 in998.3 mb 0.00 in0.0 mm 0.00 in0.0 mm 0.32 in8.1 mm
06:00 PM 59.0°F15.0°C 56.4°F13.6°C 91% 4.0 mph SSE6.4 kmh SSE 4.2 mph6.8 kmh 29.49 in998.6 mb 0.00 in0.0 mm 0.00 in0.0 mm 0.32 in8.1 mm
06:10 PM 58.8°F14.9°C 56.2°F13.4°C 91% 4.0 mph S6.4 kmh S 3.4 mph5.5 kmh 29.50 in999.0 mb 0.00 in0.0 mm 0.00 in0.0 mm 0.32 in8.1 mm
06:20 PM 58.8°F14.9°C 56.2°F13.4°C 91% 2.9 mph S4.7 kmh S 3.4 mph5.5 kmh 29.49 in998.6 mb 0.00 in0.0 mm 0.00 in0.0 mm 0.32 in8.1 mm
06:30 PM 58.6°F14.8°C 56.0°F13.3°C 91% 2.5 mph S4.0 kmh S 4.2 mph6.8 kmh 29.50 in999.0 mb 0.00 in0.0 mm 0.00 in0.0 mm 0.32 in8.1 mm
06:40 PM 58.6°F14.8°C 56.0°F13.3°C 91% 2.6 mph SSW4.2 kmh SSW 4.2 mph6.8 kmh 29.50 in999.0 mb 0.01 in0.3 mm 0.06 in1.5 mm 0.33 in8.4 mm
06:50 PM 58.6°F14.8°C 56.0°F13.3°C 91% 2.8 mph S4.5 kmh S 4.2 mph6.8 kmh 29.50 in999.0 mb 0.01 in0.3 mm 0.00 in0.0 mm 0.33 in8.4 mm
07:00 PM 58.8°F14.9°C 56.5°F13.6°C 92% 4.2 mph S6.8 kmh S 5.9 mph9.5 kmh 29.50 in999.0 mb 0.01 in0.3 mm 0.00 in0.0 mm 0.33 in8.4 mm
07:10 PM 59.2°F15.1°C 57.2°F14.0°C 93% 6.9 mph SSE11.1 kmh SSE 9.1 mph14.6 kmh 29.50 in999.0 mb 0.02 in0.5 mm 0.06 in1.5 mm 0.34 in8.6 mm
07:20 PM 59.4°F15.2°C 57.6°F14.2°C 94% 7.4 mph SSE11.9 kmh SSE 9.1 mph14.6 kmh 29.50 in999.0 mb 0.02 in0.5 mm 0.00 in0.0 mm 0.34 in8.6 mm
07:30 PM 59.2°F15.1°C 57.5°F14.2°C 94% 6.3 mph SSE10.1 kmh SSE 6.6 mph10.6 kmh 29.50 in999.0 mb 0.02 in0.5 mm 0.00 in0.0 mm 0.34 in8.6 mm
07:40 PM 59.4°F15.2°C 57.9°F14.4°C 95% 6.0 mph SSE9.7 kmh SSE 5.9 mph9.5 kmh 29.50 in999.0 mb 0.01 in0.3 mm 0.00 in0.0 mm 0.34 in8.6 mm
07:50 PM 59.5°F15.3°C 58.1°F14.5°C 95% 6.3 mph S10.1 kmh S 7.6 mph12.2 kmh 29.50 in999.0 mb 0.01 in0.3 mm 0.00 in0.0 mm 0.34 in8.6 mm
08:00 PM 59.4°F15.2°C 57.9°F14.4°C 95% 6.6 mph SSE10.6 kmh SSE 6.6 mph10.6 kmh 29.50 in999.0 mb 0.01 in0.3 mm 0.00 in0.0 mm 0.34 in8.6 mm
08:10 PM 59.2°F15.1°C 57.7°F14.3°C 95% 6.1 mph SE9.8 kmh SE 5.9 mph9.5 kmh 29.50 in999.0 mb 0.00 in0.0 mm 0.00 in0.0 mm 0.34 in8.6 mm
08:20 PM 59.0°F15.0°C 57.6°F14.2°C 95% 4.6 mph S7.4 kmh S 4.9 mph7.9 kmh 29.50 in999.0 mb 0.00 in0.0 mm 0.00 in0.0 mm 0.34 in8.6 mm
08:30 PM 58.8°F14.9°C 57.1°F13.9°C 94% 5.3 mph SSW8.5 kmh SSW 5.9 mph9.5 kmh 29.50 in999.0 mb 0.00 in0.0 mm 0.00 in0.0 mm 0.34 in8.6 mm
08:40 PM 58.8°F14.9°C 57.1°F13.9°C 94% 5.5 mph SE8.9 kmh SE 6.6 mph10.6 kmh 29.50 in999.0 mb 0.00 in0.0 mm 0.00 in0.0 mm 0.34 in8.6 mm
08:50 PM 58.6°F14.8°C 56.9°F13.8°C 94% 6.2 mph SSE10.0 kmh SSE 6.6 mph10.6 kmh 29.50 in999.0 mb 0.00 in0.0 mm 0.00 in0.0 mm 0.34 in8.6 mm
09:00 PM 58.6°F14.8°C 56.6°F13.7°C 93% 6.6 mph S10.6 kmh S 6.6 mph10.6 kmh 29.50 in999.0 mb 0.00 in0.0 mm 0.00 in0.0 mm 0.34 in8.6 mm
09:10 PM 58.5°F14.7°C 56.4°F13.6°C 93% 5.9 mph S9.5 kmh S 6.6 mph10.6 kmh 29.51 in999.3 mb 0.00 in0.0 mm 0.00 in0.0 mm 0.34 in8.6 mm
09:20 PM 58.5°F14.7°C 56.4°F13.6°C 93% 7.2 mph SSE11.6 kmh SSE 8.4 mph13.5 kmh 29.50 in999.0 mb 0.00 in0.0 mm 0.00 in0.0 mm 0.34 in8.6 mm
09:30 PM 58.3°F14.6°C 56.0°F13.3°C 92% 8.5 mph SSE13.7 kmh SSE 7.6 mph12.2 kmh 29.51 in999.3 mb 0.00 in0.0 mm 0.00 in0.0 mm 0.34 in8.6 mm
09:40 PM 58.5°F14.7°C 55.8°F13.2°C 91% 7.6 mph S12.2 kmh S 8.4 mph13.5 kmh 29.50 in999.0 mb 0.00 in0.0 mm 0.00 in0.0 mm 0.34 in8.6 mm
09:50 PM 58.5°F14.7°C 55.5°F13.1°C 90% 6.2 mph S10.0 kmh S 5.9 mph9.5 kmh 29.50 in999.0 mb 0.00 in0.0 mm 0.00 in0.0 mm 0.34 in8.6 mm
10:00 PM 58.6°F14.8°C 55.1°F12.8°C 88% 8.5 mph S13.7 kmh S 10.1 mph16.3 kmh 29.50 in999.0 mb 0.00 in0.0 mm 0.00 in0.0 mm 0.34 in8.6 mm
10:10 PM 58.6°F14.8°C 54.8°F12.7°C 87% 8.2 mph S13.2 kmh S 8.4 mph13.5 kmh 29.50 in999.0 mb 0.00 in0.0 mm 0.00 in0.0 mm 0.34 in8.6 mm
10:20 PM 58.5°F14.7°C 54.3°F12.4°C 86% 7.1 mph S11.4 kmh S 7.6 mph12.2 kmh 29.50 in999.0 mb 0.00 in0.0 mm 0.00 in0.0 mm 0.34 in8.6 mm
10:30 PM 58.5°F14.7°C 54.3°F12.4°C 86% 6.4 mph SSW10.3 kmh SSW 11.8 mph19.0 kmh 29.50 in999.0 mb 0.00 in0.0 mm 0.00 in0.0 mm 0.34 in8.6 mm
10:40 PM 58.5°F14.7°C 54.3°F12.4°C 86% 6.8 mph S10.9 kmh S 5.9 mph9.5 kmh 29.50 in999.0 mb 0.00 in0.0 mm 0.00 in0.0 mm 0.34 in8.6 mm
10:50 PM 58.3°F14.6°C 54.4°F12.4°C 87% 7.3 mph S11.7 kmh S 7.6 mph12.2 kmh 29.50 in999.0 mb 0.00 in0.0 mm 0.00 in0.0 mm 0.34 in8.6 mm
11:00 PM 58.1°F14.5°C 54.6°F12.6°C 88% 7.2 mph S11.6 kmh S 7.6 mph12.2 kmh 29.50 in999.0 mb 0.00 in0.0 mm 0.00 in0.0 mm 0.31 in7.9 mm
11:10 PM 57.7°F14.3°C 54.5°F12.5°C 89% 6.9 mph SSE11.1 kmh SSE 7.6 mph12.2 kmh 29.50 in999.0 mb 0.00 in0.0 mm 0.00 in0.0 mm 0.31 in7.9 mm
11:20 PM 57.6°F14.2°C 54.6°F12.6°C 90% 8.7 mph S14.0 kmh S 9.1 mph14.6 kmh 29.50 in999.0 mb 0.00 in0.0 mm 0.00 in0.0 mm 0.31 in7.9 mm
11:30 PM 57.4°F14.1°C 54.5°F12.5°C 90% 6.8 mph S10.9 kmh S 6.6 mph10.6 kmh 29.50 in999.0 mb 0.00 in0.0 mm 0.00 in0.0 mm 0.31 in7.9 mm
11:40 PM 57.2°F14.0°C 54.6°F12.6°C 91% 6.0 mph S9.7 kmh S 6.6 mph10.6 kmh 29.50 in999.0 mb 0.00 in0.0 mm 0.00 in0.0 mm 0.31 in7.9 mm
11:50 PM 57.4°F14.1°C 55.1°F12.8°C 92% 6.9 mph S11.1 kmh S 7.6 mph12.2 kmh 29.50 in999.0 mb 0.01 in0.3 mm 0.06 in1.5 mm 0.01 in0.3 mm